sensor_id;sensor_type;location;lat;lon;timestamp;P1;durP1;ratioP1;P2;durP2;ratioP2
66270;SDS011;53063;39.614;8.814;2023-02-05T00:00:29;31.23;;;11.15;;
66270;SDS011;53063;39.614;8.814;2023-02-05T00:02:55;20.77;;;8.00;;
66270;SDS011;53063;39.614;8.814;2023-02-05T00:05:21;19.58;;;6.00;;
66270;SDS011;53063;39.614;8.814;2023-02-05T00:07:47;18.13;;;6.80;;
66270;SDS011;53063;39.614;8.814;2023-02-05T00:10:14;20.73;;;5.35;;
66270;SDS011;53063;39.614;8.814;2023-02-05T00:12:40;22.17;;;5.30;;
66270;SDS011;53063;39.614;8.814;2023-02-05T00:15:06;15.60;;;4.93;;
66270;SDS011;53063;39.614;8.814;2023-02-05T00:17:33;12.15;;;4.18;;
66270;SDS011;53063;39.614;8.814;2023-02-05T00:20:00;16.23;;;5.40;;
66270;SDS011;53063;39.614;8.814;2023-02-05T00:22:27;15.15;;;4.60;;
66270;SDS011;53063;39.614;8.814;2023-02-05T00:24:53;14.90;;;4.38;;
66270;SDS011;53063;39.614;8.814;2023-02-05T00:27:19;10.50;;;3.75;;
66270;SDS011;53063;39.614;8.814;2023-02-05T00:29:44;13.63;;;3.97;;
66270;SDS011;53063;39.614;8.814;2023-02-05T00:32:10;18.23;;;4.05;;
66270;SDS011;53063;39.614;8.814;2023-02-05T00:34:36;15.85;;;4.38;;
66270;SDS011;53063;39.614;8.814;2023-02-05T00:37:02;14.35;;;3.47;;
66270;SDS011;53063;39.614;8.814;2023-02-05T00:39:28;18.55;;;4.00;;
66270;SDS011;53063;39.614;8.814;2023-02-05T00:41:54;13.90;;;4.32;;
66270;SDS011;53063;39.614;8.814;2023-02-05T00:44:20;12.13;;;4.47;;
66270;SDS011;53063;39.614;8.814;2023-02-05T00:46:45;14.98;;;3.67;;
66270;SDS011;53063;39.614;8.814;2023-02-05T00:49:11;13.65;;;4.00;;
66270;SDS011;53063;39.614;8.814;2023-02-05T00:51:37;16.08;;;4.05;;
66270;SDS011;53063;39.614;8.814;2023-02-05T00:54:03;15.05;;;4.15;;
66270;SDS011;53063;39.614;8.814;2023-02-05T00:56:29;26.60;;;10.63;;
66270;SDS011;53063;39.614;8.814;2023-02-05T00:58:55;22.02;;;7.72;;
66270;SDS011;53063;39.614;8.814;2023-02-05T01:01:21;21.75;;;9.10;;
66270;SDS011;53063;39.614;8.814;2023-02-05T01:03:47;17.75;;;5.25;;
66270;SDS011;53063;39.614;8.814;2023-02-05T01:06:13;17.75;;;5.95;;
66270;SDS011;53063;39.614;8.814;2023-02-05T01:08:39;19.05;;;4.28;;
66270;SDS011;53063;39.614;8.814;2023-02-05T01:11:06;18.00;;;4.22;;
66270;SDS011;53063;39.614;8.814;2023-02-05T01:13:34;17.02;;;4.57;;
66270;SDS011;53063;39.614;8.814;2023-02-05T01:16:00;15.20;;;5.18;;
66270;SDS011;53063;39.614;8.814;2023-02-05T01:18:26;18.50;;;6.07;;
66270;SDS011;53063;39.614;8.814;2023-02-05T01:20:52;18.90;;;5.25;;
66270;SDS011;53063;39.614;8.814;2023-02-05T01:23:18;20.23;;;5.43;;
66270;SDS011;53063;39.614;8.814;2023-02-05T01:25:44;13.35;;;4.40;;
66270;SDS011;53063;39.614;8.814;2023-02-05T01:28:10;16.48;;;4.57;;
66270;SDS011;53063;39.614;8.814;2023-02-05T01:30:36;12.07;;;3.95;;
66270;SDS011;53063;39.614;8.814;2023-02-05T01:33:02;15.80;;;5.03;;
66270;SDS011;53063;39.614;8.814;2023-02-05T01:35:29;17.75;;;5.82;;
66270;SDS011;53063;39.614;8.814;2023-02-05T01:37:55;14.93;;;4.40;;
66270;SDS011;53063;39.614;8.814;2023-02-05T01:40:21;23.30;;;7.53;;
66270;SDS011;53063;39.614;8.814;2023-02-05T01:42:47;34.15;;;10.38;;
66270;SDS011;53063;39.614;8.814;2023-02-05T01:50:24;24.73;;;7.75;;
66270;SDS011;53063;39.614;8.814;2023-02-05T01:52:51;15.75;;;4.10;;
66270;SDS011;53063;39.614;8.814;2023-02-05T01:55:19;14.20;;;3.45;;
66270;SDS011;53063;39.614;8.814;2023-02-05T01:57:45;13.10;;;2.90;;
66270;SDS011;53063;39.614;8.814;2023-02-05T02:00:13;9.75;;;2.88;;
66270;SDS011;53063;39.614;8.814;2023-02-05T02:02:41;14.07;;;3.53;;
66270;SDS011;53063;39.614;8.814;2023-02-05T02:05:09;8.90;;;3.20;;
66270;SDS011;53063;39.614;8.814;2023-02-05T02:07:37;12.25;;;3.00;;
66270;SDS011;53063;39.614;8.814;2023-02-05T02:10:04;15.85;;;2.90;;
66270;SDS011;53063;39.614;8.814;2023-02-05T02:12:31;16.35;;;3.38;;
66270;SDS011;53063;39.614;8.814;2023-02-05T02:15:04;10.05;;;3.25;;
66270;SDS011;53063;39.614;8.814;2023-02-05T02:17:35;8.63;;;2.42;;
66270;SDS011;53063;39.614;8.814;2023-02-05T02:20:05;14.23;;;2.95;;
66270;SDS011;53063;39.614;8.814;2023-02-05T02:28:10;8.52;;;3.15;;
66270;SDS011;53063;39.614;8.814;2023-02-05T02:33:45;15.15;;;3.03;;
66270;SDS011;53063;39.614;8.814;2023-02-05T02:36:57;11.27;;;2.35;;
66270;SDS011;53063;39.614;8.814;2023-02-05T02:41:54;8.15;;;2.50;;
66270;SDS011;53063;39.614;8.814;2023-02-05T02:45:10;11.48;;;2.88;;
66270;SDS011;53063;39.614;8.814;2023-02-05T02:47:20;6.18;;;2.13;;
66270;SDS011;53063;39.614;8.814;2023-02-05T02:49:58;8.73;;;2.25;;
66270;SDS011;53063;39.614;8.814;2023-02-05T02:52:29;7.10;;;1.90;;
66270;SDS011;53063;39.614;8.814;2023-02-05T02:54:58;16.08;;;3.47;;
66270;SDS011;53063;39.614;8.814;2023-02-05T02:57:30;13.43;;;4.33;;
66270;SDS011;53063;39.614;8.814;2023-02-05T02:59:59;11.48;;;3.45;;
66270;SDS011;53063;39.614;8.814;2023-02-05T03:02:30;14.68;;;2.38;;
66270;SDS011;53063;39.614;8.814;2023-02-05T03:05:00;13.52;;;2.90;;
66270;SDS011;53063;39.614;8.814;2023-02-05T03:07:34;9.57;;;2.53;;
66270;SDS011;53063;39.614;8.814;2023-02-05T03:10:15;11.35;;;2.28;;
66270;SDS011;53063;39.614;8.814;2023-02-05T03:12:58;17.50;;;3.60;;
66270;SDS011;53063;39.614;8.814;2023-02-05T03:15:26;11.40;;;3.20;;
66270;SDS011;53063;39.614;8.814;2023-02-05T03:17:52;9.25;;;2.72;;
66270;SDS011;53063;39.614;8.814;2023-02-05T03:20:21;6.03;;;2.80;;
66270;SDS011;53063;39.614;8.814;2023-02-05T03:22:54;8.82;;;2.80;;
66270;SDS011;53063;39.614;8.814;2023-02-05T03:25:21;12.68;;;3.05;;
66270;SDS011;53063;39.614;8.814;2023-02-05T03:27:53;9.07;;;3.13;;
66270;SDS011;53063;39.614;8.814;2023-02-05T03:30:22;12.95;;;3.25;;
66270;SDS011;53063;39.614;8.814;2023-02-05T03:35:42;11.43;;;3.00;;
66270;SDS011;53063;39.614;8.814;2023-02-05T03:40:50;13.30;;;3.15;;
66270;SDS011;53063;39.614;8.814;2023-02-05T03:51:33;9.98;;;2.45;;
66270;SDS011;53063;39.614;8.814;2023-02-05T03:54:16;15.27;;;2.88;;
66270;SDS011;53063;39.614;8.814;2023-02-05T03:57:17;11.38;;;3.00;;
66270;SDS011;53063;39.614;8.814;2023-02-05T03:59:48;12.95;;;2.78;;
66270;SDS011;53063;39.614;8.814;2023-02-05T04:02:16;10.30;;;2.70;;
66270;SDS011;53063;39.614;8.814;2023-02-05T04:04:44;12.02;;;2.25;;
66270;SDS011;53063;39.614;8.814;2023-02-05T04:07:11;9.35;;;2.33;;
66270;SDS011;53063;39.614;8.814;2023-02-05T04:09:38;6.60;;;1.98;;
66270;SDS011;53063;39.614;8.814;2023-02-05T04:12:04;8.88;;;2.22;;
66270;SDS011;53063;39.614;8.814;2023-02-05T04:14:32;4.85;;;1.95;;
66270;SDS011;53063;39.614;8.814;2023-02-05T04:16:57;10.00;;;2.15;;
66270;SDS011;53063;39.614;8.814;2023-02-05T04:19:25;11.57;;;2.33;;
66270;SDS011;53063;39.614;8.814;2023-02-05T04:21:53;6.65;;;2.35;;
66270;SDS011;53063;39.614;8.814;2023-02-05T04:24:19;11.10;;;2.42;;
66270;SDS011;53063;39.614;8.814;2023-02-05T04:26:45;10.00;;;2.20;;
66270;SDS011;53063;39.614;8.814;2023-02-05T04:29:12;7.35;;;2.25;;
66270;SDS011;53063;39.614;8.814;2023-02-05T04:31:42;7.15;;;1.90;;
66270;SDS011;53063;39.614;8.814;2023-02-05T04:34:09;12.45;;;2.70;;
66270;SDS011;53063;39.614;8.814;2023-02-05T04:36:35;11.60;;;2.47;;
66270;SDS011;53063;39.614;8.814;2023-02-05T04:39:01;7.95;;;1.98;;
66270;SDS011;53063;39.614;8.814;2023-02-05T04:41:28;6.22;;;1.95;;
66270;SDS011;53063;39.614;8.814;2023-02-05T04:43:54;6.68;;;2.20;;
66270;SDS011;53063;39.614;8.814;2023-02-05T04:46:20;11.20;;;2.38;;
66270;SDS011;53063;39.614;8.814;2023-02-05T04:48:46;6.22;;;2.00;;
66270;SDS011;53063;39.614;8.814;2023-02-05T04:51:12;6.40;;;2.00;;
66270;SDS011;53063;39.614;8.814;2023-02-05T04:53:40;5.97;;;2.10;;
66270;SDS011;53063;39.614;8.814;2023-02-05T04:56:06;6.70;;;2.00;;
66270;SDS011;53063;39.614;8.814;2023-02-05T04:58:37;9.07;;;2.58;;
66270;SDS011;53063;39.614;8.814;2023-02-05T05:01:03;14.63;;;2.72;;
66270;SDS011;53063;39.614;8.814;2023-02-05T05:03:34;10.30;;;2.53;;
66270;SDS011;53063;39.614;8.814;2023-02-05T05:06:03;8.55;;;2.38;;
66270;SDS011;53063;39.614;8.814;2023-02-05T05:08:30;8.07;;;2.88;;
66270;SDS011;53063;39.614;8.814;2023-02-05T05:10:56;7.90;;;3.10;;
66270;SDS011;53063;39.614;8.814;2023-02-05T05:13:22;8.48;;;2.80;;
66270;SDS011;53063;39.614;8.814;2023-02-05T05:15:52;6.63;;;2.30;;
66270;SDS011;53063;39.614;8.814;2023-02-05T05:18:18;11.88;;;2.63;;
66270;SDS011;53063;39.614;8.814;2023-02-05T05:20:44;7.70;;;2.92;;
66270;SDS011;53063;39.614;8.814;2023-02-05T05:23:10;12.70;;;2.88;;
66270;SDS011;53063;39.614;8.814;2023-02-05T05:25:43;8.30;;;2.83;;
66270;SDS011;53063;39.614;8.814;2023-02-05T05:28:10;9.07;;;3.20;;
66270;SDS011;53063;39.614;8.814;2023-02-05T05:30:39;9.70;;;2.95;;
66270;SDS011;53063;39.614;8.814;2023-02-05T05:33:07;7.68;;;3.45;;
66270;SDS011;53063;39.614;8.814;2023-02-05T05:35:33;9.20;;;3.35;;
66270;SDS011;53063;39.614;8.814;2023-02-05T05:37:59;9.50;;;3.05;;
66270;SDS011;53063;39.614;8.814;2023-02-05T05:40:26;11.38;;;3.30;;
66270;SDS011;53063;39.614;8.814;2023-02-05T05:43:12;17.80;;;3.20;;
66270;SDS011;53063;39.614;8.814;2023-02-05T05:45:58;10.90;;;2.83;;
66270;SDS011;53063;39.614;8.814;2023-02-05T05:48:24;10.18;;;2.80;;
66270;SDS011;53063;39.614;8.814;2023-02-05T05:50:50;8.88;;;3.00;;
66270;SDS011;53063;39.614;8.814;2023-02-05T05:53:16;9.55;;;3.13;;
66270;SDS011;53063;39.614;8.814;2023-02-05T05:55:42;8.75;;;3.00;;
66270;SDS011;53063;39.614;8.814;2023-02-05T05:58:08;11.00;;;3.25;;
66270;SDS011;53063;39.614;8.814;2023-02-05T06:00:35;10.57;;;3.65;;
66270;SDS011;53063;39.614;8.814;2023-02-05T06:03:01;6.13;;;3.03;;
66270;SDS011;53063;39.614;8.814;2023-02-05T06:05:28;10.73;;;3.25;;
66270;SDS011;53063;39.614;8.814;2023-02-05T06:07:54;18.45;;;5.10;;
66270;SDS011;53063;39.614;8.814;2023-02-05T06:10:20;13.02;;;6.13;;
66270;SDS011;53063;39.614;8.814;2023-02-05T06:12:46;14.40;;;5.63;;
66270;SDS011;53063;39.614;8.814;2023-02-05T06:15:13;12.75;;;5.38;;
66270;SDS011;53063;39.614;8.814;2023-02-05T06:17:38;16.58;;;5.70;;
66270;SDS011;53063;39.614;8.814;2023-02-05T06:20:05;11.88;;;3.83;;
66270;SDS011;53063;39.614;8.814;2023-02-05T06:22:31;10.85;;;4.97;;
66270;SDS011;53063;39.614;8.814;2023-02-05T06:24:57;12.10;;;5.55;;
66270;SDS011;53063;39.614;8.814;2023-02-05T06:27:22;21.25;;;8.95;;
66270;SDS011;53063;39.614;8.814;2023-02-05T06:29:48;19.15;;;8.23;;
66270;SDS011;53063;39.614;8.814;2023-02-05T06:32:14;18.20;;;8.25;;
66270;SDS011;53063;39.614;8.814;2023-02-05T06:34:40;16.48;;;7.53;;
66270;SDS011;53063;39.614;8.814;2023-02-05T06:37:06;23.90;;;7.63;;
66270;SDS011;53063;39.614;8.814;2023-02-05T06:39:32;16.55;;;6.88;;
66270;SDS011;53063;39.614;8.814;2023-02-05T06:41:58;22.52;;;8.18;;
66270;SDS011;53063;39.614;8.814;2023-02-05T06:44:24;16.83;;;8.13;;
66270;SDS011;53063;39.614;8.814;2023-02-05T06:46:50;17.13;;;7.22;;
66270;SDS011;53063;39.614;8.814;2023-02-05T06:49:15;14.77;;;7.20;;
66270;SDS011;53063;39.614;8.814;2023-02-05T06:51:41;18.52;;;7.93;;
66270;SDS011;53063;39.614;8.814;2023-02-05T06:54:07;14.43;;;7.05;;
66270;SDS011;53063;39.614;8.814;2023-02-05T06:56:33;20.88;;;7.15;;
66270;SDS011;53063;39.614;8.814;2023-02-05T06:58:59;15.65;;;7.20;;
66270;SDS011;53063;39.614;8.814;2023-02-05T07:01:25;20.85;;;10.52;;
66270;SDS011;53063;39.614;8.814;2023-02-05T07:03:51;41.08;;;16.00;;
66270;SDS011;53063;39.614;8.814;2023-02-05T07:06:23;31.55;;;13.95;;
66270;SDS011;53063;39.614;8.814;2023-02-05T07:08:50;26.35;;;11.35;;
66270;SDS011;53063;39.614;8.814;2023-02-05T07:11:17;29.67;;;12.20;;
66270;SDS011;53063;39.614;8.814;2023-02-05T07:13:44;32.08;;;13.82;;
66270;SDS011;53063;39.614;8.814;2023-02-05T07:16:10;56.40;;;20.80;;
66270;SDS011;53063;39.614;8.814;2023-02-05T07:18:36;150.73;;;53.63;;
66270;SDS011;53063;39.614;8.814;2023-02-05T07:21:06;141.07;;;51.50;;
66270;SDS011;53063;39.614;8.814;2023-02-05T07:23:34;140.60;;;49.42;;
66270;SDS011;53063;39.614;8.814;2023-02-05T07:26:07;159.55;;;58.13;;
66270;SDS011;53063;39.614;8.814;2023-02-05T07:28:34;151.65;;;53.33;;
66270;SDS011;53063;39.614;8.814;2023-02-05T07:31:07;113.10;;;40.15;;
66270;SDS011;53063;39.614;8.814;2023-02-05T07:33:35;89.82;;;34.38;;
66270;SDS011;53063;39.614;8.814;2023-02-05T07:36:02;68.50;;;22.92;;
66270;SDS011;53063;39.614;8.814;2023-02-05T07:38:29;75.32;;;27.27;;
66270;SDS011;53063;39.614;8.814;2023-02-05T07:40:56;68.70;;;26.33;;
66270;SDS011;53063;39.614;8.814;2023-02-05T07:43:22;76.53;;;26.67;;
66270;SDS011;53063;39.614;8.814;2023-02-05T07:45:54;66.75;;;25.23;;
66270;SDS011;53063;39.614;8.814;2023-02-05T07:48:24;28.45;;;12.43;;
66270;SDS011;53063;39.614;8.814;2023-02-05T07:50:50;32.78;;;12.05;;
66270;SDS011;53063;39.614;8.814;2023-02-05T07:53:16;23.40;;;9.85;;
66270;SDS011;53063;39.614;8.814;2023-02-05T07:55:42;48.28;;;15.52;;
66270;SDS011;53063;39.614;8.814;2023-02-05T07:58:08;61.30;;;23.90;;
66270;SDS011;53063;39.614;8.814;2023-02-05T08:00:34;77.75;;;27.60;;
66270;SDS011;53063;39.614;8.814;2023-02-05T08:03:00;107.13;;;42.88;;
66270;SDS011;53063;39.614;8.814;2023-02-05T08:05:26;84.75;;;31.23;;
66270;SDS011;53063;39.614;8.814;2023-02-05T08:07:52;64.55;;;22.58;;
66270;SDS011;53063;39.614;8.814;2023-02-05T08:10:18;51.30;;;17.98;;
66270;SDS011;53063;39.614;8.814;2023-02-05T08:12:44;34.05;;;13.85;;
66270;SDS011;53063;39.614;8.814;2023-02-05T08:15:10;22.27;;;8.13;;
66270;SDS011;53063;39.614;8.814;2023-02-05T08:17:36;10.05;;;4.75;;
66270;SDS011;53063;39.614;8.814;2023-02-05T08:20:03;10.52;;;4.78;;
66270;SDS011;53063;39.614;8.814;2023-02-05T08:22:35;12.70;;;5.10;;
66270;SDS011;53063;39.614;8.814;2023-02-05T08:25:03;10.77;;;4.97;;
66270;SDS011;53063;39.614;8.814;2023-02-05T08:27:31;17.70;;;9.20;;
66270;SDS011;53063;39.614;8.814;2023-02-05T08:29:58;19.55;;;9.13;;
66270;SDS011;53063;39.614;8.814;2023-02-05T08:32:24;18.83;;;9.55;;
66270;SDS011;53063;39.614;8.814;2023-02-05T08:34:50;14.80;;;7.85;;
66270;SDS011;53063;39.614;8.814;2023-02-05T08:37:16;10.55;;;5.47;;
66270;SDS011;53063;39.614;8.814;2023-02-05T08:39:42;11.52;;;5.60;;
66270;SDS011;53063;39.614;8.814;2023-02-05T08:42:09;7.47;;;5.97;;
66270;SDS011;53063;39.614;8.814;2023-02-05T08:44:35;17.55;;;7.35;;
66270;SDS011;53063;39.614;8.814;2023-02-05T08:47:01;15.82;;;6.22;;
66270;SDS011;53063;39.614;8.814;2023-02-05T08:49:27;10.30;;;4.18;;
66270;SDS011;53063;39.614;8.814;2023-02-05T08:51:52;5.30;;;2.53;;
66270;SDS011;53063;39.614;8.814;2023-02-05T08:54:18;7.75;;;4.22;;
66270;SDS011;53063;39.614;8.814;2023-02-05T08:56:46;9.98;;;4.35;;
66270;SDS011;53063;39.614;8.814;2023-02-05T08:59:13;10.00;;;5.25;;
66270;SDS011;53063;39.614;8.814;2023-02-05T09:01:40;6.35;;;3.15;;
66270;SDS011;53063;39.614;8.814;2023-02-05T09:04:09;9.60;;;4.70;;
66270;SDS011;53063;39.614;8.814;2023-02-05T09:06:45;8.85;;;3.30;;
66270;SDS011;53063;39.614;8.814;2023-02-05T09:09:11;5.80;;;3.22;;
66270;SDS011;53063;39.614;8.814;2023-02-05T09:11:38;9.88;;;3.17;;
66270;SDS011;53063;39.614;8.814;2023-02-05T09:14:04;10.90;;;4.65;;
66270;SDS011;53063;39.614;8.814;2023-02-05T09:16:30;13.02;;;7.03;;
66270;SDS011;53063;39.614;8.814;2023-02-05T09:18:56;8.77;;;4.97;;
66270;SDS011;53063;39.614;8.814;2023-02-05T09:21:23;18.48;;;10.40;;
66270;SDS011;53063;39.614;8.814;2023-02-05T09:23:50;12.52;;;7.25;;
66270;SDS011;53063;39.614;8.814;2023-02-05T09:26:16;13.30;;;6.28;;
66270;SDS011;53063;39.614;8.814;2023-02-05T09:28:43;21.90;;;10.32;;
66270;SDS011;53063;39.614;8.814;2023-02-05T09:31:10;16.15;;;6.00;;
66270;SDS011;53063;39.614;8.814;2023-02-05T09:33:38;31.58;;;13.32;;
66270;SDS011;53063;39.614;8.814;2023-02-05T09:36:04;13.55;;;5.18;;
66270;SDS011;53063;39.614;8.814;2023-02-05T09:38:31;8.52;;;3.53;;
66270;SDS011;53063;39.614;8.814;2023-02-05T09:49:00;21.70;;;8.40;;
66270;SDS011;53063;39.614;8.814;2023-02-05T09:51:37;12.50;;;5.93;;
66270;SDS011;53063;39.614;8.814;2023-02-05T09:54:18;19.52;;;7.00;;
66270;SDS011;53063;39.614;8.814;2023-02-05T09:56:56;15.93;;;6.03;;
66270;SDS011;53063;39.614;8.814;2023-02-05T09:59:35;16.00;;;7.97;;
66270;SDS011;53063;39.614;8.814;2023-02-05T10:02:02;13.90;;;7.10;;
66270;SDS011;53063;39.614;8.814;2023-02-05T10:04:51;8.55;;;3.83;;
66270;SDS011;53063;39.614;8.814;2023-02-05T10:26:14;9.10;;;2.85;;
66270;SDS011;53063;39.614;8.814;2023-02-05T10:33:53;13.27;;;4.22;;
66270;SDS011;53063;39.614;8.814;2023-02-05T10:36:28;7.18;;;2.80;;
66270;SDS011;53063;39.614;8.814;2023-02-05T10:38:55;5.38;;;2.00;;
66270;SDS011;53063;39.614;8.814;2023-02-05T10:47:05;9.07;;;2.28;;
66270;SDS011;53063;39.614;8.814;2023-02-05T10:52:41;7.43;;;3.67;;
66270;SDS011;53063;39.614;8.814;2023-02-05T10:55:10;7.90;;;5.28;;
66270;SDS011;53063;39.614;8.814;2023-02-05T10:57:37;8.25;;;2.78;;
66270;SDS011;53063;39.614;8.814;2023-02-05T11:00:04;21.48;;;13.80;;
66270;SDS011;53063;39.614;8.814;2023-02-05T11:02:39;6.43;;;3.08;;
66270;SDS011;53063;39.614;8.814;2023-02-05T11:07:46;22.70;;;8.95;;
66270;SDS011;53063;39.614;8.814;2023-02-05T11:10:15;12.73;;;7.40;;
66270;SDS011;53063;39.614;8.814;2023-02-05T11:12:53;9.50;;;5.20;;
66270;SDS011;53063;39.614;8.814;2023-02-05T11:15:28;13.40;;;6.90;;
66270;SDS011;53063;39.614;8.814;2023-02-05T11:18:00;8.90;;;2.85;;
66270;SDS011;53063;39.614;8.814;2023-02-05T11:20:31;8.30;;;3.63;;
66270;SDS011;53063;39.614;8.814;2023-02-05T11:25:47;4.88;;;1.85;;
66270;SDS011;53063;39.614;8.814;2023-02-05T11:28:17;6.72;;;2.10;;
66270;SDS011;53063;39.614;8.814;2023-02-05T11:30:48;9.52;;;2.40;;
66270;SDS011;53063;39.614;8.814;2023-02-05T11:36:05;6.13;;;2.17;;
66270;SDS011;53063;39.614;8.814;2023-02-05T11:38:33;4.93;;;2.03;;
66270;SDS011;53063;39.614;8.814;2023-02-05T11:41:13;5.78;;;2.00;;
66270;SDS011;53063;39.614;8.814;2023-02-05T11:43:50;5.32;;;1.90;;
66270;SDS011;53063;39.614;8.814;2023-02-05T11:46:19;5.82;;;1.65;;
66270;SDS011;53063;39.614;8.814;2023-02-05T11:53:59;11.90;;;7.10;;
66270;SDS011;53063;39.614;8.814;2023-02-05T11:56:29;4.47;;;1.55;;
66270;SDS011;53063;39.614;8.814;2023-02-05T12:01:25;13.68;;;2.17;;
66270;SDS011;53063;39.614;8.814;2023-02-05T12:06:41;7.75;;;1.67;;
66270;SDS011;53063;39.614;8.814;2023-02-05T12:09:15;6.03;;;2.55;;
66270;SDS011;53063;39.614;8.814;2023-02-05T12:23:48;8.10;;;2.53;;
66270;SDS011;53063;39.614;8.814;2023-02-05T12:29:04;11.02;;;3.08;;
66270;SDS011;53063;39.614;8.814;2023-02-05T12:42:56;6.82;;;1.90;;
66270;SDS011;53063;39.614;8.814;2023-02-05T12:45:50;13.13;;;2.38;;
66270;SDS011;53063;39.614;8.814;2023-02-05T12:51:39;32.08;;;14.13;;
66270;SDS011;53063;39.614;8.814;2023-02-05T12:54:20;5.38;;;2.85;;
66270;SDS011;53063;39.614;8.814;2023-02-05T13:00:37;6.10;;;2.33;;
66270;SDS011;53063;39.614;8.814;2023-02-05T13:05:32;9.13;;;2.15;;
66270;SDS011;53063;39.614;8.814;2023-02-05T13:08:04;5.28;;;2.13;;
66270;SDS011;53063;39.614;8.814;2023-02-05T13:13:59;12.60;;;6.78;;
66270;SDS011;53063;39.614;8.814;2023-02-05T13:16:50;14.13;;;8.40;;
66270;SDS011;53063;39.614;8.814;2023-02-05T13:25:00;16.48;;;6.72;;
66270;SDS011;53063;39.614;8.814;2023-02-05T13:27:51;12.65;;;4.50;;
66270;SDS011;53063;39.614;8.814;2023-02-05T13:30:45;13.98;;;4.47;;
66270;SDS011;53063;39.614;8.814;2023-02-05T13:33:14;12.82;;;4.03;;
66270;SDS011;53063;39.614;8.814;2023-02-05T13:35:42;10.30;;;3.63;;
66270;SDS011;53063;39.614;8.814;2023-02-05T13:41:18;26.27;;;11.32;;
66270;SDS011;53063;39.614;8.814;2023-02-05T13:49:38;19.50;;;10.30;;
66270;SDS011;53063;39.614;8.814;2023-02-05T13:52:34;21.73;;;9.27;;
66270;SDS011;53063;39.614;8.814;2023-02-05T13:58:14;22.05;;;11.88;;
66270;SDS011;53063;39.614;8.814;2023-02-05T14:01:29;23.00;;;5.82;;
66270;SDS011;53063;39.614;8.814;2023-02-05T14:03:44;14.75;;;3.80;;
66270;SDS011;53063;39.614;8.814;2023-02-05T14:14:24;11.80;;;3.88;;
66270;SDS011;53063;39.614;8.814;2023-02-05T14:16:51;21.23;;;7.55;;
66270;SDS011;53063;39.614;8.814;2023-02-05T14:19:20;15.32;;;6.25;;
66270;SDS011;53063;39.614;8.814;2023-02-05T14:22:08;7.72;;;3.75;;
66270;SDS011;53063;39.614;8.814;2023-02-05T14:24:44;14.23;;;3.13;;
66270;SDS011;53063;39.614;8.814;2023-02-05T14:31:00;12.15;;;4.78;;
66270;SDS011;53063;39.614;8.814;2023-02-05T14:33:02;11.40;;;3.83;;
66270;SDS011;53063;39.614;8.814;2023-02-05T14:35:47;19.10;;;2.97;;
66270;SDS011;53063;39.614;8.814;2023-02-05T14:41:01;11.15;;;3.10;;
66270;SDS011;53063;39.614;8.814;2023-02-05T14:43:33;10.20;;;2.65;;
66270;SDS011;53063;39.614;8.814;2023-02-05T14:48:53;11.52;;;3.42;;
66270;SDS011;53063;39.614;8.814;2023-02-05T14:51:47;11.85;;;4.40;;
66270;SDS011;53063;39.614;8.814;2023-02-05T14:56:48;12.65;;;3.80;;
66270;SDS011;53063;39.614;8.814;2023-02-05T15:01:57;13.60;;;5.80;;
66270;SDS011;53063;39.614;8.814;2023-02-05T15:07:09;13.02;;;4.32;;
66270;SDS011;53063;39.614;8.814;2023-02-05T15:09:45;21.05;;;8.90;;
66270;SDS011;53063;39.614;8.814;2023-02-05T15:15:31;14.95;;;6.95;;
66270;SDS011;53063;39.614;8.814;2023-02-05T15:18:08;14.07;;;4.82;;
66270;SDS011;53063;39.614;8.814;2023-02-05T15:20:52;16.63;;;4.85;;
66270;SDS011;53063;39.614;8.814;2023-02-05T15:23:39;27.35;;;5.50;;
66270;SDS011;53063;39.614;8.814;2023-02-05T15:28:56;30.30;;;5.22;;
66270;SDS011;53063;39.614;8.814;2023-02-05T15:31:48;16.75;;;3.65;;
66270;SDS011;53063;39.614;8.814;2023-02-05T15:34:21;21.37;;;6.07;;
66270;SDS011;53063;39.614;8.814;2023-02-05T15:41:59;141.02;;;13.38;;
66270;SDS011;53063;39.614;8.814;2023-02-05T15:44:28;19.92;;;5.40;;
66270;SDS011;53063;39.614;8.814;2023-02-05T15:46:59;7.45;;;2.63;;
66270;SDS011;53063;39.614;8.814;2023-02-05T15:51:56;7.25;;;3.40;;
66270;SDS011;53063;39.614;8.814;2023-02-05T15:54:24;16.70;;;5.32;;
66270;SDS011;53063;39.614;8.814;2023-02-05T15:56:51;12.55;;;3.22;;
66270;SDS011;53063;39.614;8.814;2023-02-05T15:59:21;21.20;;;6.30;;
66270;SDS011;53063;39.614;8.814;2023-02-05T16:01:59;8.75;;;3.53;;
66270;SDS011;53063;39.614;8.814;2023-02-05T16:06:56;12.02;;;3.58;;
66270;SDS011;53063;39.614;8.814;2023-02-05T16:09:24;24.15;;;3.08;;
66270;SDS011;53063;39.614;8.814;2023-02-05T16:11:52;11.43;;;2.45;;
66270;SDS011;53063;39.614;8.814;2023-02-05T16:14:21;9.73;;;2.63;;
66270;SDS011;53063;39.614;8.814;2023-02-05T16:19:34;12.38;;;3.65;;
66270;SDS011;53063;39.614;8.814;2023-02-05T16:27:43;12.98;;;3.88;;
66270;SDS011;53063;39.614;8.814;2023-02-05T16:30:15;79.35;;;6.88;;
66270;SDS011;53063;39.614;8.814;2023-02-05T16:32:44;101.07;;;11.48;;
66270;SDS011;53063;39.614;8.814;2023-02-05T16:35:23;12.95;;;5.22;;
66270;SDS011;53063;39.614;8.814;2023-02-05T16:37:55;24.73;;;11.43;;
66270;SDS011;53063;39.614;8.814;2023-02-05T16:40:37;30.48;;;13.77;;
66270;SDS011;53063;39.614;8.814;2023-02-05T16:43:29;30.10;;;12.60;;
66270;SDS011;53063;39.614;8.814;2023-02-05T16:51:27;23.52;;;10.50;;
66270;SDS011;53063;39.614;8.814;2023-02-05T16:54:01;27.42;;;14.32;;
66270;SDS011;53063;39.614;8.814;2023-02-05T16:59:47;53.72;;;23.48;;
66270;SDS011;53063;39.614;8.814;2023-02-05T17:05:26;70.82;;;26.83;;
66270;SDS011;53063;39.614;8.814;2023-02-05T17:08:01;38.35;;;17.85;;
66270;SDS011;53063;39.614;8.814;2023-02-05T17:10:30;29.50;;;14.25;;
66270;SDS011;53063;39.614;8.814;2023-02-05T17:13:24;52.17;;;24.53;;
66270;SDS011;53063;39.614;8.814;2023-02-05T17:15:50;38.80;;;19.15;;
66270;SDS011;53063;39.614;8.814;2023-02-05T17:23:51;16.92;;;5.93;;
66270;SDS011;53063;39.614;8.814;2023-02-05T17:26:18;14.52;;;4.72;;
66270;SDS011;53063;39.614;8.814;2023-02-05T17:28:46;13.65;;;4.78;;
66270;SDS011;53063;39.614;8.814;2023-02-05T17:31:16;9.60;;;4.22;;
66270;SDS011;53063;39.614;8.814;2023-02-05T17:33:42;16.35;;;4.43;;
66270;SDS011;53063;39.614;8.814;2023-02-05T17:36:14;13.73;;;4.80;;
66270;SDS011;53063;39.614;8.814;2023-02-05T17:38:42;20.85;;;8.57;;
66270;SDS011;53063;39.614;8.814;2023-02-05T17:41:13;31.08;;;10.88;;
66270;SDS011;53063;39.614;8.814;2023-02-05T17:44:00;86.97;;;41.15;;
66270;SDS011;53063;39.614;8.814;2023-02-05T17:46:26;61.50;;;27.23;;
66270;SDS011;53063;39.614;8.814;2023-02-05T17:48:52;45.20;;;19.55;;
66270;SDS011;53063;39.614;8.814;2023-02-05T17:51:20;48.95;;;21.85;;
66270;SDS011;53063;39.614;8.814;2023-02-05T17:53:47;47.88;;;18.95;;
66270;SDS011;53063;39.614;8.814;2023-02-05T17:56:14;44.00;;;18.20;;
66270;SDS011;53063;39.614;8.814;2023-02-05T17:58:43;54.90;;;25.10;;
66270;SDS011;53063;39.614;8.814;2023-02-05T18:01:10;69.28;;;26.75;;
66270;SDS011;53063;39.614;8.814;2023-02-05T18:03:37;46.33;;;20.45;;
66270;SDS011;53063;39.614;8.814;2023-02-05T18:06:04;46.22;;;18.98;;
66270;SDS011;53063;39.614;8.814;2023-02-05T18:08:30;56.95;;;23.80;;
66270;SDS011;53063;39.614;8.814;2023-02-05T18:11:00;57.03;;;25.65;;
66270;SDS011;53063;39.614;8.814;2023-02-05T18:13:27;59.35;;;25.23;;
66270;SDS011;53063;39.614;8.814;2023-02-05T18:15:53;35.95;;;16.65;;
66270;SDS011;53063;39.614;8.814;2023-02-05T18:18:30;33.33;;;12.90;;
66270;SDS011;53063;39.614;8.814;2023-02-05T18:20:57;29.23;;;13.07;;
66270;SDS011;53063;39.614;8.814;2023-02-05T18:23:23;26.02;;;11.55;;